createdAt,value
2017-08-14T00:01:17.023Z,16.00
2017-08-14T00:03:43.290Z,16.00
2017-08-14T00:06:09.610Z,16.00
2017-08-14T00:08:35.890Z,16.00
2017-08-14T00:11:03.170Z,15.90
2017-08-14T00:13:29.878Z,15.90
2017-08-14T00:15:56.150Z,15.90
2017-08-14T00:18:23.170Z,15.80
2017-08-14T00:20:49.518Z,15.80
2017-08-14T00:23:15.797Z,15.80
2017-08-14T00:25:43.863Z,15.70
2017-08-14T00:28:10.152Z,15.70
2017-08-14T00:30:36.450Z,15.70
2017-08-14T00:33:02.730Z,15.70
2017-08-14T00:35:29.026Z,15.60
2017-08-14T00:37:55.310Z,15.60
2017-08-14T00:40:21.583Z,15.50
2017-08-14T00:42:47.870Z,15.50
2017-08-14T00:45:15.159Z,15.40
2017-08-14T00:47:41.430Z,15.40
2017-08-14T00:50:07.742Z,15.30
2017-08-14T00:52:34.049Z,15.30
2017-08-14T00:55:01.062Z,15.30
2017-08-14T00:57:27.366Z,15.30
2017-08-14T00:59:53.673Z,15.20
2017-08-14T01:02:19.954Z,15.20
2017-08-14T01:04:46.241Z,15.20
2017-08-14T01:07:12.560Z,15.20
2017-08-14T01:09:38.826Z,15.20
2017-08-14T01:12:05.126Z,15.20
2017-08-14T01:14:31.411Z,15.10
2017-08-14T01:16:57.662Z,15.10
2017-08-14T01:19:24.034Z,15.00
2017-08-14T01:21:50.290Z,15.00
2017-08-14T01:24:16.590Z,14.90
2017-08-14T01:26:42.907Z,14.90
2017-08-14T01:29:09.172Z,14.90
2017-08-14T01:31:36.207Z,14.80
2017-08-14T01:34:02.499Z,14.80
2017-08-14T01:36:28.755Z,14.80
2017-08-14T01:38:55.049Z,14.80
2017-08-14T01:41:21.334Z,14.70
2017-08-14T01:43:47.614Z,14.70
2017-08-14T01:46:13.890Z,14.70
2017-08-14T01:48:40.170Z,14.70
2017-08-14T01:51:07.175Z,14.60
2017-08-14T01:53:33.519Z,14.60
2017-08-14T01:55:59.794Z,14.60
2017-08-14T01:58:27.062Z,14.50
2017-08-14T02:00:53.353Z,14.50
2017-08-14T02:03:19.630Z,14.50
2017-08-14T02:05:45.906Z,14.40
2017-08-14T02:08:12.198Z,14.40
2017-08-14T02:10:38.482Z,14.40
2017-08-14T02:13:04.754Z,14.40
2017-08-14T02:15:31.054Z,14.40
2017-08-14T02:17:58.085Z,14.40
2017-08-14T02:20:24.331Z,14.40
2017-08-14T02:22:50.614Z,14.30
2017-08-14T02:25:16.898Z,14.30
2017-08-14T02:27:43.199Z,14.30
2017-08-14T02:30:09.486Z,14.30
2017-08-14T02:32:35.770Z,14.20
2017-08-14T02:35:02.042Z,14.20
2017-08-14T02:37:28.350Z,14.20
2017-08-14T02:39:54.653Z,14.20
2017-08-14T02:42:30.982Z,14.20
2017-08-14T02:44:57.270Z,14.20
2017-08-14T02:47:23.542Z,14.20
2017-08-14T02:49:49.822Z,14.10
2017-08-14T02:52:16.119Z,14.10
2017-08-14T02:54:42.387Z,14.20
2017-08-14T02:57:08.665Z,14.20
2017-08-14T02:59:34.965Z,14.20
2017-08-14T03:02:01.218Z,14.20
2017-08-14T03:04:27.499Z,14.30
2017-08-14T03:06:53.793Z,14.30
2017-08-14T03:09:20.083Z,14.30
2017-08-14T03:11:46.366Z,14.30
2017-08-14T03:14:12.727Z,14.30
2017-08-14T03:16:39.030Z,14.20
2017-08-14T03:19:05.308Z,14.30
2017-08-14T03:21:31.630Z,14.30
2017-08-14T03:23:58.070Z,14.30
2017-08-14T03:26:24.350Z,14.30
2017-08-14T03:28:50.678Z,14.40
2017-08-14T03:31:16.948Z,14.40
2017-08-14T03:33:43.226Z,14.40
2017-08-14T03:36:09.546Z,14.40
2017-08-14T03:38:35.827Z,14.40
2017-08-14T03:41:02.122Z,14.50
2017-08-14T03:43:28.422Z,14.50
2017-08-14T03:45:54.690Z,14.50
2017-08-14T03:48:20.958Z,14.60
2017-08-14T03:50:47.295Z,14.70
2017-08-14T03:53:13.542Z,14.60
2017-08-14T03:55:39.822Z,14.60
2017-08-14T03:58:06.114Z,14.60
2017-08-14T04:00:33.102Z,14.70
2017-08-14T04:02:59.362Z,14.70
2017-08-14T04:05:25.682Z,14.70
2017-08-14T04:07:51.940Z,14.60
2017-08-14T04:10:18.220Z,14.60
2017-08-14T04:12:44.536Z,14.60
2017-08-14T04:15:10.818Z,14.60
2017-08-14T04:17:37.078Z,14.70
2017-08-14T04:20:03.386Z,14.60
2017-08-14T04:22:29.638Z,14.60
2017-08-14T04:24:55.914Z,14.60
2017-08-14T04:27:22.217Z,14.60
2017-08-14T04:29:48.506Z,14.50
2017-08-14T04:32:14.759Z,14.50
2017-08-14T04:34:41.066Z,14.50
2017-08-14T04:37:07.339Z,14.50
2017-08-14T04:39:33.595Z,14.40
2017-08-14T04:41:59.897Z,14.50
2017-08-14T04:44:26.882Z,14.40
2017-08-14T04:46:53.143Z,14.40
2017-08-14T04:49:19.456Z,14.50
2017-08-14T04:51:45.726Z,14.40
2017-08-14T04:54:12.002Z,14.40
2017-08-14T04:56:38.297Z,14.40
2017-08-14T04:59:04.550Z,14.40
2017-08-14T05:01:30.825Z,14.40
2017-08-14T05:03:57.104Z,14.50
2017-08-14T05:06:23.371Z,14.50
2017-08-14T05:08:49.733Z,14.50
2017-08-14T05:11:16.022Z,14.50
2017-08-14T05:13:42.273Z,14.60
2017-08-14T05:16:09.313Z,14.70
2017-08-14T05:18:35.605Z,14.60
2017-08-14T05:21:02.636Z,14.80
2017-08-14T05:23:28.973Z,14.80
2017-08-14T05:25:55.251Z,14.80
2017-08-14T05:28:21.514Z,14.90
2017-08-14T05:30:47.838Z,14.90
2017-08-14T05:33:14.127Z,15.00
2017-08-14T05:35:40.414Z,15.10
2017-08-14T05:38:06.689Z,15.20
2017-08-14T05:40:34.002Z,15.30
2017-08-14T05:43:01.074Z,15.50
2017-08-14T05:45:27.370Z,15.50
2017-08-14T05:47:53.670Z,15.60
2017-08-14T05:50:19.943Z,15.70
2017-08-14T05:52:46.202Z,15.70
2017-08-14T05:55:12.498Z,15.80
2017-08-14T05:57:39.518Z,15.90
2017-08-14T06:00:05.826Z,15.90
2017-08-14T06:02:32.151Z,16.00
2017-08-14T06:04:58.423Z,16.00
2017-08-14T06:07:24.714Z,16.10
2017-08-14T06:09:51.005Z,16.20
2017-08-14T06:12:17.299Z,16.30
2017-08-14T06:14:43.590Z,16.40
2017-08-14T06:17:09.899Z,16.40
2017-08-14T06:19:36.163Z,16.50
2017-08-14T06:22:02.483Z,16.60
2017-08-14T06:24:28.766Z,16.70
2017-08-14T06:26:55.086Z,16.80
2017-08-14T06:29:21.367Z,16.90
2017-08-14T06:31:47.673Z,16.90
2017-08-14T06:34:13.948Z,17.00
2017-08-14T06:36:40.238Z,17.10
2017-08-14T06:39:07.254Z,17.30
2017-08-14T06:41:33.526Z,17.30
2017-08-14T06:43:59.798Z,17.40
2017-08-14T06:46:26.861Z,17.70
2017-08-14T06:48:53.122Z,17.70
2017-08-14T06:51:19.414Z,17.90
2017-08-14T06:53:45.797Z,18.10
2017-08-14T06:56:12.111Z,18.30
2017-08-14T06:58:38.439Z,18.40
2017-08-14T07:01:04.779Z,18.50
2017-08-14T07:03:31.153Z,18.70
2017-08-14T07:05:57.543Z,18.70
2017-08-14T07:08:23.906Z,18.80
2017-08-14T07:10:50.257Z,19.00
2017-08-14T07:13:16.670Z,19.10
2017-08-14T07:15:43.755Z,19.50
2017-08-14T07:18:11.195Z,19.50
2017-08-14T07:20:37.551Z,19.70
2017-08-14T07:23:03.951Z,19.80
2017-08-14T07:25:30.367Z,19.90
2017-08-14T07:27:56.758Z,19.90
2017-08-14T07:30:23.177Z,20.00
2017-08-14T07:32:49.589Z,20.20
2017-08-14T07:35:16.010Z,20.20
2017-08-14T07:37:42.423Z,20.30
2017-08-14T07:40:08.805Z,20.30
2017-08-14T07:42:35.200Z,20.30
2017-08-14T07:45:01.624Z,20.50
2017-08-14T07:47:27.955Z,20.70
2017-08-14T07:49:55.096Z,20.90
2017-08-14T07:52:21.467Z,20.90
2017-08-14T07:54:47.823Z,21.10
2017-08-14T07:57:14.971Z,21.40
2017-08-14T07:59:41.363Z,21.40
2017-08-14T08:02:08.489Z,21.50
2017-08-14T08:04:34.860Z,21.50
2017-08-14T08:07:01.258Z,21.40
2017-08-14T08:09:28.328Z,21.50
2017-08-14T08:11:54.690Z,21.40
2017-08-14T08:14:21.055Z,21.60
2017-08-14T08:16:47.452Z,21.60
2017-08-14T08:19:13.911Z,21.70
2017-08-14T08:21:40.303Z,21.70
2017-08-14T08:24:06.707Z,21.70
2017-08-14T08:26:33.062Z,21.60
2017-08-14T08:28:59.437Z,21.60
2017-08-14T08:31:25.798Z,21.50
2017-08-14T08:33:52.180Z,21.60
2017-08-14T08:36:18.595Z,21.50
2017-08-14T08:38:45.032Z,21.50
2017-08-14T08:41:11.399Z,21.50
2017-08-14T08:43:37.798Z,21.40
2017-08-14T08:46:04.919Z,21.30
2017-08-14T08:48:32.051Z,21.50
2017-08-14T08:50:58.456Z,21.50
2017-08-14T08:53:24.884Z,21.60
2017-08-14T08:55:51.279Z,21.70
2017-08-14T08:58:17.692Z,21.70
2017-08-14T09:00:44.068Z,21.70
2017-08-14T09:03:10.432Z,21.70
2017-08-14T09:05:37.579Z,22.00
2017-08-14T09:08:03.951Z,21.90
2017-08-14T18:10:05.826Z,22.80
2017-08-14T18:12:33.570Z,22.50
2017-08-14T18:15:00.551Z,22.50
2017-08-14T18:17:28.692Z,22.70
2017-08-14T18:19:56.442Z,22.70
2017-08-14T18:22:24.664Z,22.70
2017-08-14T18:24:52.488Z,22.70
2017-08-14T18:27:20.216Z,22.80
2017-08-14T18:29:47.918Z,22.70
2017-08-14T18:32:16.399Z,22.70
2017-08-14T18:34:43.894Z,22.60
2017-08-14T18:37:12.362Z,22.50
2017-08-14T18:39:40.201Z,22.50
2017-08-14T18:42:08.141Z,22.50
2017-08-14T18:44:36.953Z,22.40
2017-08-14T18:47:04.824Z,22.40
2017-08-14T18:49:33.513Z,22.20
2017-08-14T18:52:01.328Z,22.20
2017-08-14T18:54:29.271Z,22.20
2017-08-14T18:56:57.207Z,22.10
2017-08-14T18:59:24.999Z,22.10
2017-08-14T19:01:52.934Z,22.00
2017-08-14T19:04:20.788Z,22.00
2017-08-14T19:06:48.574Z,21.90
2017-08-14T19:09:18.469Z,21.80
2017-08-14T19:11:44.914Z,21.80
2017-08-14T19:14:12.664Z,21.70
2017-08-14T19:16:40.539Z,21.60
2017-08-14T19:19:08.454Z,21.60
2017-08-14T19:21:36.270Z,21.50
2017-08-14T19:24:04.179Z,21.40
2017-08-14T19:26:32.126Z,21.40
2017-08-14T19:29:00.892Z,21.30
2017-08-14T19:31:28.744Z,21.20
2017-08-14T19:33:56.622Z,21.20
2017-08-14T19:36:25.033Z,21.10
2017-08-14T19:38:53.796Z,21.00
2017-08-14T19:41:21.727Z,21.00
2017-08-14T19:43:50.309Z,20.90
2017-08-14T19:46:18.276Z,20.90
2017-08-14T19:48:46.773Z,20.80
2017-08-14T19:51:14.743Z,20.80
2017-08-14T19:53:43.759Z,20.70
2017-08-14T19:56:11.709Z,20.70
2017-08-14T19:58:39.549Z,20.60
2017-08-14T20:01:07.623Z,20.60
2017-08-14T20:03:35.549Z,20.60
2017-08-14T20:06:03.434Z,20.50
2017-08-14T20:08:31.481Z,20.40
2017-08-14T20:10:59.443Z,20.40
2017-08-14T20:13:27.306Z,20.30
2017-08-14T20:15:56.336Z,20.30
2017-08-14T20:18:25.419Z,20.30
2017-08-14T20:20:53.296Z,20.20
2017-08-14T20:23:22.363Z,20.20
2017-08-14T20:25:50.357Z,20.10
2017-08-14T20:28:18.335Z,20.10
2017-08-14T20:30:46.336Z,20.10
2017-08-14T20:33:14.316Z,20.00
2017-08-14T20:35:42.116Z,20.00
2017-08-14T20:38:10.080Z,20.00
2017-08-14T20:40:39.078Z,20.00
2017-08-14T20:43:07.002Z,19.90
2017-08-14T20:45:34.977Z,19.90
2017-08-14T20:48:02.908Z,19.80
2017-08-14T20:50:30.786Z,19.80
2017-08-14T20:52:58.806Z,19.80
2017-08-14T20:55:26.787Z,19.70
2017-08-14T20:57:54.586Z,19.70
2017-08-14T21:00:22.516Z,19.70
2017-08-14T21:02:50.377Z,19.60
2017-08-14T21:05:18.143Z,19.60
2017-08-14T21:07:46.134Z,19.60
2017-08-14T21:10:14.781Z,19.50
2017-08-14T21:12:41.469Z,19.50
2017-08-14T21:15:08.078Z,19.50
2017-08-14T21:17:34.451Z,19.40
2017-08-14T21:20:00.814Z,19.40
2017-08-14T21:22:27.184Z,19.40
2017-08-14T21:24:54.334Z,19.30
2017-08-14T21:27:21.407Z,19.30
2017-08-14T21:29:47.771Z,19.30
2017-08-14T21:32:14.156Z,19.20
2017-08-14T21:34:41.366Z,19.20
2017-08-14T21:37:07.732Z,19.20
2017-08-14T21:39:34.124Z,19.20
2017-08-14T21:42:00.523Z,19.20
2017-08-14T21:44:26.947Z,19.10
2017-08-14T21:46:53.319Z,19.20
2017-08-14T21:49:19.700Z,19.10
2017-08-14T21:51:46.054Z,19.10
2017-08-14T21:54:12.496Z,19.10
2017-08-14T21:56:39.695Z,19.10
2017-08-14T21:59:06.063Z,19.10
2017-08-14T22:01:32.464Z,19.10
2017-08-14T22:03:58.811Z,19.10
2017-08-14T22:06:25.175Z,19.10
2017-08-14T22:08:51.592Z,19.00
2017-08-14T22:11:17.936Z,19.00
2017-08-14T22:13:44.299Z,18.90
2017-08-14T22:16:10.749Z,19.00
2017-08-14T22:18:37.281Z,18.90
2017-08-14T22:21:05.819Z,18.80
2017-08-14T22:23:32.421Z,18.80
2017-08-14T22:26:00.968Z,18.80
2017-08-14T22:28:27.380Z,18.80
2017-08-14T22:30:54.535Z,18.70
2017-08-14T22:33:20.951Z,18.60
2017-08-14T22:35:47.354Z,18.60
2017-08-14T22:38:13.722Z,18.60
2017-08-14T22:40:40.071Z,18.60
2017-08-14T22:43:06.799Z,18.60
2017-08-14T22:45:34.324Z,18.60
2017-08-14T22:48:00.646Z,18.50
2017-08-14T22:50:26.918Z,18.50
2017-08-14T22:52:53.191Z,18.50
2017-08-14T22:55:19.458Z,18.50
2017-08-14T22:57:45.734Z,18.50
2017-08-14T23:00:12.026Z,18.50
2017-08-14T23:02:38.282Z,18.50
2017-08-14T23:05:04.558Z,18.50
2017-08-14T23:07:31.578Z,18.50
2017-08-14T23:09:57.839Z,18.40
2017-08-14T23:12:24.138Z,18.40
2017-08-14T23:14:50.395Z,18.40
2017-08-14T23:17:16.654Z,18.40
2017-08-14T23:19:43.670Z,18.30
2017-08-14T23:22:10.670Z,18.30
2017-08-14T23:24:36.918Z,18.30
2017-08-14T23:27:03.198Z,18.30
2017-08-14T23:29:29.474Z,18.20
2017-08-14T23:31:55.754Z,18.20
2017-08-14T23:34:22.019Z,18.20
2017-08-14T23:36:48.307Z,18.20
2017-08-14T23:39:15.337Z,18.10
2017-08-14T23:41:42.348Z,18.10
2017-08-14T23:44:10.470Z,18.10
2017-08-14T23:46:36.717Z,18.10
2017-08-14T23:49:02.967Z,18.00
2017-08-14T23:51:29.266Z,18.00
2017-08-14T23:53:56.534Z,18.00
2017-08-14T23:56:22.813Z,18.00
2017-08-14T23:58:49.126Z,17.90
